map of CZS home
Great Circle Mapper logo
CZS - Airport
Location
City:  Cruzeiro do Sul, Acre, Brazil
ICAO / IATA:SBCZ / CZS

Details
Type:Airport (Aerodrome, Airfield)
Use:International (customs port of entry)
Latitude:736'00"S (-7.599905)
Longitude:7246'10"W (-72.769488)
Datum:WGS 1984
Elevation:637 ft (194 m)
Variation:5.7W (WMM2010 magnetic declination)
Runways:1
Longest:7874 × 148 ft (2400 × 45 m), paved

Time
Time Zone:UTC-5
Local Time:

Weather
METAR:SBCZ 232000Z 36002KT 9999 SCT025 BKN100 25/25 Q1007 RETS

Related Locations
Nearby:
Farthest:VCS: 12345 mi / 19868 km
Con Son Island [Con Dao Airport (Co Ong Airport)], Con Dao Archipelago, VN

Find:

   beyond  
but within

Other Information
Maps:
NOTAMs:
Links:
Sources:

  
flag of Brazil
flag of Acre
  

Sectional Chart

Flight Planning
at skyvector.com

Satellite Image

Google Maps Satellite View

 

Copyright © 2004-2014 Karl L. Swartz. All rights reserved.
The Great Circle Mapper name and logo are trademarks of the Great Circle Mapper.
All other trademarks mentioned herein belong to their respective owners.
Please see credits for attibutions and further copyright information.

  Follow gcmap on Facebook Follow gcmap on Twitter

hCard Microformat

Geo Microformat